createdAt,value
2023-04-18T00:02:19.226Z,8.30
2023-04-18T00:04:48.164Z,8.27
2023-04-18T00:07:18.788Z,8.22
2023-04-18T00:09:47.047Z,8.16
2023-04-18T00:12:15.817Z,8.11
2023-04-18T00:14:45.423Z,8.09
2023-04-18T00:17:14.749Z,8.08
2023-04-18T00:19:44.851Z,8.07
2023-04-18T00:22:13.650Z,8.10
2023-04-18T00:24:42.125Z,8.17
2023-04-18T00:27:10.704Z,8.22
2023-04-18T00:29:42.695Z,8.24
2023-04-18T00:32:12.989Z,8.24
2023-04-18T00:34:41.476Z,8.23
2023-04-18T00:37:10.882Z,8.23
2023-04-18T00:39:39.161Z,8.22
2023-04-18T00:42:07.635Z,8.18
2023-04-18T00:44:37.450Z,8.13
2023-04-18T00:47:08.190Z,8.08
2023-04-18T00:49:36.560Z,8.04
2023-04-18T00:52:06.476Z,8.00
2023-04-18T00:54:34.860Z,7.96
2023-04-18T00:57:03.849Z,7.92
2023-04-18T00:59:34.955Z,7.89
2023-04-18T01:02:04.656Z,7.88
2023-04-18T01:04:33.729Z,7.90
2023-04-18T01:07:03.869Z,7.93
2023-04-18T01:09:32.315Z,7.94
2023-04-18T01:12:02.006Z,7.92
2023-04-18T01:14:30.593Z,7.89
2023-04-18T01:16:59.176Z,7.85
2023-04-18T01:19:27.660Z,7.79
2023-04-18T01:21:56.550Z,7.72
2023-04-18T01:24:26.977Z,7.66
2023-04-18T01:26:55.253Z,7.63
2023-04-18T01:29:23.540Z,7.58
2023-04-18T01:31:51.903Z,7.51
2023-04-18T01:34:20.123Z,7.43
2023-04-18T01:36:48.672Z,7.36
2023-04-18T01:39:18.589Z,7.34
2023-04-18T01:41:46.975Z,7.37
2023-04-18T01:44:15.544Z,7.38
2023-04-18T01:46:44.078Z,7.38
2023-04-18T01:49:12.508Z,7.34
2023-04-18T01:51:42.427Z,7.27
2023-04-18T01:54:11.549Z,7.23
2023-04-18T01:56:41.437Z,7.17
2023-04-18T01:59:09.750Z,7.10
2023-04-18T02:01:38.809Z,7.04
2023-04-18T02:04:07.582Z,6.96
2023-04-18T02:06:37.313Z,6.89
2023-04-18T02:09:05.688Z,6.83
2023-04-18T02:11:33.868Z,6.82
2023-04-18T02:14:04.527Z,6.82
2023-04-18T02:16:34.638Z,6.86
2023-04-18T02:19:04.750Z,6.86
2023-04-18T02:21:33.230Z,6.84
2023-04-18T02:24:01.709Z,6.81
2023-04-18T02:26:30.086Z,6.77
2023-04-18T02:28:59.070Z,6.73
2023-04-18T02:31:27.512Z,6.70
2023-04-18T02:33:55.848Z,6.66
2023-04-18T02:36:26.292Z,6.60
2023-04-18T02:38:55.463Z,6.58
2023-04-18T02:41:23.739Z,6.59
2023-04-18T02:43:52.217Z,6.62
2023-04-18T02:46:20.937Z,6.64
2023-04-18T02:48:49.792Z,6.67
2023-04-18T02:51:20.347Z,6.69
2023-04-18T02:53:49.089Z,6.69
2023-04-18T02:56:17.902Z,6.68
2023-04-18T02:59:24.628Z,6.66
2023-04-18T03:02:15.310Z,6.64
2023-04-18T03:04:50.647Z,6.62
2023-04-18T03:07:19.512Z,6.59
2023-04-18T03:09:48.423Z,6.57
2023-04-18T03:12:25.089Z,6.60
2023-04-18T03:14:53.469Z,6.66
2023-04-18T03:17:22.234Z,6.74
2023-04-18T03:19:51.768Z,6.80
2023-04-18T03:22:21.357Z,6.85
2023-04-18T03:25:02.198Z,6.86
2023-04-18T03:27:52.016Z,6.87
2023-04-18T03:30:23.164Z,6.87
2023-04-18T03:32:56.267Z,6.87
2023-04-18T03:35:25.853Z,6.87
2023-04-18T03:37:54.130Z,6.87
2023-04-18T03:40:26.912Z,6.87
2023-04-18T03:42:59.859Z,6.88
2023-04-18T03:45:29.415Z,6.93
2023-04-18T03:47:57.837Z,7.01
2023-04-18T03:50:26.990Z,7.10
2023-04-18T03:52:56.385Z,7.17
2023-04-18T03:55:26.608Z,7.21
2023-04-18T03:57:55.811Z,7.25
2023-04-18T04:00:30.126Z,7.27
2023-04-18T04:03:07.186Z,7.28
2023-04-18T04:05:36.101Z,7.28
2023-04-18T04:08:05.025Z,7.30
2023-04-18T04:10:34.706Z,7.31
2023-04-18T04:13:03.187Z,7.32
2023-04-18T04:15:32.387Z,7.38
2023-04-18T04:18:06.551Z,7.50
2023-04-18T04:20:37.954Z,7.60
2023-04-18T04:23:15.466Z,7.71
2023-04-18T04:25:46.384Z,7.81
2023-04-18T04:28:26.433Z,7.91
2023-04-18T04:31:03.114Z,8.02
2023-04-18T04:33:34.358Z,8.12
2023-04-18T04:36:05.292Z,8.23
2023-04-18T04:38:38.612Z,8.33
2023-04-18T04:41:08.503Z,8.41
2023-04-18T04:43:41.484Z,8.49
2023-04-18T04:46:10.128Z,8.57
2023-04-18T04:48:38.348Z,8.67
2023-04-18T04:51:06.939Z,8.75
2023-04-18T04:53:35.822Z,8.84
2023-04-18T04:56:05.121Z,8.90
2023-04-18T04:58:35.044Z,8.94
2023-04-18T05:01:20.804Z,9.00
2023-04-18T05:03:51.871Z,9.03
2023-04-18T05:06:23.986Z,9.04
2023-04-18T05:08:52.421Z,9.06
2023-04-18T05:11:21.409Z,9.08
2023-04-18T05:13:49.686Z,9.08
2023-04-18T05:16:19.207Z,9.10
2023-04-18T05:18:47.983Z,9.13
2023-04-18T05:21:17.189Z,9.16
2023-04-18T05:23:46.581Z,9.22
2023-04-18T05:26:14.860Z,9.37
2023-04-18T05:28:43.689Z,9.54
2023-04-18T05:31:15.847Z,9.69
2023-04-18T05:33:44.213Z,9.83
2023-04-18T05:36:12.678Z,9.95
2023-04-18T05:38:42.488Z,10.04
2023-04-18T05:41:10.782Z,10.14
2023-04-18T05:43:41.818Z,10.25
2023-04-18T05:46:12.782Z,10.33
2023-04-18T05:48:41.435Z,10.37
2023-04-18T05:51:11.457Z,10.41
2023-04-18T05:53:39.790Z,10.47
2023-04-18T05:56:09.140Z,10.51
2023-04-18T05:58:37.668Z,10.55
2023-04-18T06:01:06.710Z,10.59
2023-04-18T06:03:36.212Z,10.64
2023-04-18T06:06:05.727Z,10.69
2023-04-18T06:08:35.853Z,10.77
2023-04-18T06:11:04.326Z,10.83
2023-04-18T06:13:35.675Z,10.85
2023-04-18T06:16:07.186Z,10.87
2023-04-18T06:18:36.008Z,10.89
2023-04-18T06:21:04.274Z,10.95
2023-04-18T06:23:34.601Z,11.05
2023-04-18T06:26:02.881Z,11.23
2023-04-18T06:28:31.261Z,11.44
2023-04-18T06:30:59.704Z,11.56
2023-04-18T06:33:31.250Z,11.58
2023-04-18T06:35:59.622Z,11.61
2023-04-18T06:38:28.206Z,11.65
2023-04-18T06:40:56.689Z,11.72
2023-04-18T06:43:36.484Z,11.79
2023-04-18T06:46:05.592Z,11.89
2023-04-18T06:48:34.177Z,12.03
2023-04-18T06:51:03.515Z,12.15
2023-04-18T06:53:32.917Z,12.23
2023-04-18T06:56:02.942Z,12.29
2023-04-18T06:58:31.423Z,12.34
2023-04-18T07:01:00.430Z,12.37
2023-04-18T07:03:30.730Z,12.40
2023-04-18T07:05:59.122Z,12.50
2023-04-18T07:08:27.906Z,12.67
2023-04-18T07:10:57.721Z,12.81
2023-04-18T07:13:26.107Z,12.88
2023-04-18T07:15:56.222Z,12.90
2023-04-18T07:18:36.665Z,12.99
2023-04-18T07:21:08.152Z,13.12
2023-04-18T07:23:37.902Z,13.23
2023-04-18T07:26:06.279Z,13.34
2023-04-18T07:28:34.989Z,13.48
2023-04-18T07:31:04.932Z,13.59
2023-04-18T07:33:36.773Z,13.65
2023-04-18T07:36:06.848Z,13.68
2023-04-18T07:38:38.323Z,13.71
2023-04-18T07:41:06.599Z,13.77
2023-04-18T07:43:35.207Z,13.79
2023-04-18T07:46:03.378Z,13.81
2023-04-18T07:48:32.762Z,13.83
2023-04-18T07:51:01.792Z,13.80
2023-04-18T07:53:31.595Z,13.71
2023-04-18T07:55:59.742Z,13.54
2023-04-18T07:58:28.645Z,13.45
2023-04-18T08:00:57.019Z,13.48
2023-04-18T08:03:28.568Z,13.54
2023-04-18T08:05:57.870Z,13.61
2023-04-18T08:08:27.072Z,13.71
2023-04-18T08:10:55.344Z,13.82
2023-04-18T08:13:26.194Z,13.94
2023-04-18T08:15:56.303Z,14.11
2023-04-18T08:18:24.476Z,14.25
2023-04-18T08:20:52.829Z,14.39
2023-04-18T08:23:22.932Z,14.56
2023-04-18T08:25:52.275Z,14.73
2023-04-18T08:28:21.166Z,14.96
2023-04-18T08:30:52.540Z,15.17
2023-04-18T08:33:23.577Z,15.34
2023-04-18T08:35:52.905Z,15.51
2023-04-18T08:38:21.560Z,15.62
2023-04-18T08:40:50.026Z,15.71
2023-04-18T08:43:19.225Z,15.81
2023-04-18T08:45:48.389Z,15.90
2023-04-18T08:48:18.871Z,15.99
2023-04-18T08:50:48.901Z,16.04
2023-04-18T08:53:18.094Z,16.01
2023-04-18T08:55:47.954Z,16.01
2023-04-18T08:58:22.650Z,16.01
2023-04-18T09:00:52.653Z,15.89
2023-04-18T09:06:53.245Z,15.38
2023-04-18T09:09:27.623Z,15.15
2023-04-18T09:12:08.997Z,14.95
2023-04-18T09:14:38.497Z,14.72
2023-04-18T09:17:07.095Z,14.55
2023-04-18T09:19:36.068Z,14.39
2023-04-18T09:22:05.167Z,14.23
2023-04-18T09:24:34.666Z,14.15
2023-04-18T09:27:04.379Z,14.11
2023-04-18T09:29:54.656Z,14.07
2023-04-18T09:32:25.807Z,14.01
2023-04-18T09:35:02.626Z,13.95
2023-04-18T09:37:32.818Z,13.92
2023-04-18T09:40:01.324Z,13.88
2023-04-18T09:42:31.421Z,13.87
2023-04-18T09:45:06.247Z,13.86
2023-04-18T09:47:36.790Z,13.85
2023-04-18T09:50:06.927Z,13.85
2023-04-18T09:52:38.617Z,13.91
2023-04-18T09:55:09.947Z,14.00
2023-04-18T09:57:42.507Z,14.08
2023-04-18T10:00:18.194Z,14.15
2023-04-18T10:02:51.949Z,14.23
2023-04-18T10:05:22.161Z,14.33
2023-04-18T10:07:51.146Z,14.40
2023-04-18T10:10:19.529Z,14.42
2023-04-18T10:12:50.067Z,14.44
2023-04-18T10:15:18.749Z,14.45
2023-04-18T10:18:04.452Z,14.46
2023-04-18T10:20:36.205Z,14.45
2023-04-18T10:23:35.800Z,14.42
2023-04-18T10:26:09.003Z,14.44
2023-04-18T10:28:59.690Z,14.41
2023-04-18T10:31:30.168Z,14.37
2023-04-18T10:36:30.672Z,14.17
2023-04-18T10:39:04.388Z,14.11
2023-04-18T10:41:34.551Z,14.08
2023-04-18T10:44:09.156Z,14.06
2023-04-18T10:46:40.223Z,14.01
2023-04-18T10:49:24.560Z,13.94
2023-04-18T10:52:00.759Z,13.89
2023-04-18T10:54:37.409Z,13.84
2023-04-18T10:57:07.806Z,13.85
2023-04-18T10:59:43.957Z,13.87
2023-04-18T11:02:26.471Z,13.95
2023-04-18T11:04:57.518Z,14.07
2023-04-18T11:07:46.219Z,14.22
2023-04-18T11:10:23.967Z,14.42
2023-04-18T11:12:54.376Z,14.61
2023-04-18T11:15:23.721Z,14.82
2023-04-18T11:18:05.411Z,15.08
2023-04-18T11:20:41.151Z,15.34
2023-04-18T11:23:18.429Z,15.52
2023-04-18T11:25:47.447Z,15.71
2023-04-18T11:28:20.270Z,15.92
2023-04-18T11:30:48.612Z,16.21
2023-04-18T11:33:17.240Z,16.47
2023-04-18T11:35:47.539Z,16.68
2023-04-18T11:38:17.123Z,16.83
2023-04-18T11:40:49.494Z,16.94
2023-04-18T11:43:25.862Z,16.96
2023-04-18T11:46:00.220Z,16.98
2023-04-18T11:48:44.030Z,17.00
2023-04-18T11:51:31.812Z,16.96
2023-04-18T11:54:03.133Z,16.83
2023-04-18T11:56:34.626Z,16.67
2023-04-18T11:59:10.228Z,16.51
2023-04-18T12:01:38.722Z,16.33
2023-04-18T12:04:08.603Z,16.09
2023-04-18T12:06:51.141Z,15.89
2023-04-18T12:09:21.458Z,15.75
2023-04-18T12:12:01.168Z,15.66
2023-04-18T12:14:31.634Z,15.63
2023-04-18T12:16:59.914Z,15.58
2023-04-18T12:19:29.314Z,15.49
2023-04-18T12:22:01.014Z,15.41
2023-04-18T12:24:31.100Z,15.34
2023-04-18T12:26:59.584Z,15.27
2023-04-18T12:29:28.766Z,15.16
2023-04-18T12:31:57.292Z,14.95
2023-04-18T12:34:26.448Z,14.80
2023-04-18T12:36:55.046Z,14.73
2023-04-18T12:39:23.318Z,14.75
2023-04-18T12:41:51.701Z,14.77
2023-04-18T12:44:21.500Z,14.76
2023-04-18T12:46:51.536Z,14.79
2023-04-18T12:49:20.322Z,14.81
2023-04-18T12:51:48.378Z,14.84
2023-04-18T12:54:16.770Z,14.88
2023-04-18T12:56:46.371Z,14.91
2023-04-18T12:59:14.924Z,14.95
2023-04-18T13:01:44.420Z,14.97
2023-04-18T13:04:13.666Z,14.95
2023-04-18T13:06:42.767Z,14.87
2023-04-18T13:09:13.274Z,14.75
2023-04-18T13:11:43.819Z,14.52
2023-04-18T13:14:12.328Z,14.33
2023-04-18T13:16:43.633Z,14.15
2023-04-18T13:19:13.996Z,13.97
2023-04-18T13:21:42.451Z,13.76
2023-04-18T13:24:11.826Z,13.56
2023-04-18T13:26:40.747Z,13.40
2023-04-18T13:29:09.022Z,13.28
2023-04-18T13:31:38.661Z,13.17
2023-04-18T13:34:07.519Z,13.04
2023-04-18T13:36:36.718Z,12.96
2023-04-18T13:39:09.913Z,12.86
2023-04-18T13:41:43.319Z,12.72
2023-04-18T13:44:14.468Z,12.59
2023-04-18T13:46:42.728Z,12.43
2023-04-18T13:49:11.376Z,12.25
2023-04-18T13:51:39.996Z,12.07
2023-04-18T13:54:09.194Z,11.88
2023-04-18T13:56:39.342Z,11.74
2023-04-18T13:59:08.104Z,11.67
2023-04-18T14:01:38.527Z,11.55
2023-04-18T14:04:08.192Z,11.44
2023-04-18T14:06:36.830Z,11.32
2023-04-18T14:09:07.677Z,11.15
2023-04-18T14:11:36.165Z,10.98
2023-04-18T14:14:04.406Z,10.83
2023-04-18T14:16:35.210Z,10.71
2023-04-18T14:19:04.290Z,10.63
2023-04-18T14:21:32.824Z,10.54
2023-04-18T14:24:01.789Z,10.39
2023-04-18T14:26:31.135Z,10.22
2023-04-18T14:28:59.256Z,10.07
2023-04-18T14:31:28.529Z,9.96
2023-04-18T14:33:58.888Z,9.91
2023-04-18T14:36:28.849Z,9.89
2023-04-18T14:38:57.808Z,9.90
2023-04-18T14:41:26.557Z,9.92
2023-04-18T14:43:55.031Z,9.95
2023-04-18T14:46:23.512Z,9.93
2023-04-18T14:48:51.967Z,9.89
2023-04-18T14:51:21.469Z,9.87
2023-04-18T14:53:56.936Z,9.86
2023-04-18T14:56:27.140Z,9.86
2023-04-18T14:58:57.056Z,9.87
2023-04-18T15:01:25.599Z,9.87
2023-04-18T15:03:55.498Z,9.89
2023-04-18T15:06:24.725Z,9.98
2023-04-18T15:08:53.236Z,10.12
2023-04-18T15:11:22.841Z,10.25
2023-04-18T15:13:52.160Z,10.36
2023-04-18T15:16:24.670Z,10.42
2023-04-18T15:19:00.575Z,10.43
2023-04-18T15:21:33.258Z,10.38
2023-04-18T15:24:04.297Z,10.34
2023-04-18T15:26:36.673Z,10.37
2023-04-18T15:29:04.953Z,10.45
2023-04-18T15:31:33.875Z,10.55
2023-04-18T15:34:03.056Z,10.65
2023-04-18T15:36:32.342Z,10.74
2023-04-18T15:39:01.950Z,10.84
2023-04-18T15:41:35.597Z,10.93
2023-04-18T15:44:06.062Z,11.04
2023-04-18T15:46:36.759Z,11.18
2023-04-18T15:49:06.846Z,11.29
2023-04-18T15:51:35.519Z,11.39
2023-04-18T15:54:05.438Z,11.45
2023-04-18T15:56:37.022Z,11.48
2023-04-18T15:59:08.653Z,11.49
2023-04-18T16:01:37.265Z,11.44
2023-04-18T16:04:05.943Z,11.34
2023-04-18T16:06:35.936Z,11.30
2023-04-18T16:09:07.176Z,11.28
2023-04-18T16:11:35.770Z,11.28
2023-04-18T16:14:05.539Z,11.27
2023-04-18T16:16:35.590Z,11.23
2023-04-18T16:19:16.500Z,11.17
2023-04-18T16:21:47.260Z,11.08
2023-04-18T16:24:17.645Z,10.99
2023-04-18T16:26:45.895Z,10.90
2023-04-18T16:29:14.484Z,10.84
2023-04-18T16:31:43.424Z,10.82
2023-04-18T16:34:16.168Z,10.76
2023-04-18T16:36:45.353Z,10.70
2023-04-18T16:39:13.840Z,10.62
2023-04-18T16:41:43.345Z,10.59
2023-04-18T16:44:12.454Z,10.56
2023-04-18T16:46:41.204Z,10.51
2023-04-18T16:49:10.027Z,10.42
2023-04-18T16:51:42.185Z,10.29
2023-04-18T16:54:11.284Z,10.16
2023-04-18T16:56:39.970Z,10.06
2023-04-18T16:59:12.399Z,10.00
2023-04-18T17:01:41.199Z,10.01
2023-04-18T17:04:19.484Z,10.05
2023-04-18T17:06:51.462Z,10.07
2023-04-18T17:09:20.705Z,10.08
2023-04-18T17:11:49.720Z,10.08
2023-04-18T17:14:18.666Z,10.10
2023-04-18T17:16:47.131Z,10.09
2023-04-18T17:19:17.046Z,10.10
2023-04-18T17:21:45.577Z,10.15
2023-04-18T17:24:17.101Z,10.18
2023-04-18T17:26:46.126Z,10.15
2023-04-18T17:29:14.549Z,10.12
2023-04-18T17:31:44.050Z,10.08
2023-04-18T17:34:13.101Z,10.03
2023-04-18T17:36:42.194Z,10.00
2023-04-18T17:39:11.294Z,9.99
2023-04-18T17:41:41.518Z,9.98
2023-04-18T17:44:10.724Z,9.99
2023-04-18T17:46:39.397Z,10.00
2023-04-18T17:49:10.028Z,10.00
2023-04-18T17:51:39.226Z,9.96
2023-04-18T17:54:08.385Z,9.90
2023-04-18T17:56:37.726Z,9.89
2023-04-18T17:59:08.542Z,9.93
2023-04-18T18:01:38.005Z,9.97
2023-04-18T18:04:07.195Z,9.99
2023-04-18T18:06:35.956Z,9.99
2023-04-18T18:09:04.277Z,10.00
2023-04-18T18:11:35.478Z,10.00
2023-04-18T18:14:03.966Z,10.01
2023-04-18T18:16:34.674Z,10.03
2023-04-18T18:19:06.674Z,10.08
2023-04-18T18:21:34.961Z,10.13
2023-04-18T18:24:03.525Z,10.18
2023-04-18T18:26:39.273Z,10.20
2023-04-18T18:29:11.441Z,10.22
2023-04-18T18:31:44.038Z,10.23
2023-04-18T18:34:12.497Z,10.24
2023-04-18T18:36:40.881Z,10.23
2023-04-18T18:39:11.139Z,10.22
2023-04-18T18:41:41.792Z,10.26
2023-04-18T18:44:10.144Z,10.33
2023-04-18T18:46:39.784Z,10.37
2023-04-18T18:49:09.633Z,10.41
2023-04-18T18:51:41.210Z,10.43
2023-04-18T18:54:10.806Z,10.42
2023-04-18T18:56:40.399Z,10.39
2023-04-18T18:59:13.569Z,10.34
2023-04-18T19:01:41.927Z,10.28
2023-04-18T19:04:11.004Z,10.26
2023-04-18T19:06:41.715Z,10.28
2023-04-18T19:09:11.004Z,10.29
2023-04-18T19:11:39.384Z,10.32
2023-04-18T19:14:08.989Z,10.36
2023-04-18T19:16:37.404Z,10.41
2023-04-18T19:19:05.752Z,10.42
2023-04-18T19:21:35.980Z,10.43
2023-04-18T19:24:04.592Z,10.42
2023-04-18T19:26:33.042Z,10.41
2023-04-18T19:29:01.935Z,10.39
2023-04-18T19:31:35.694Z,10.37
2023-04-18T19:34:05.037Z,10.38
2023-04-18T19:36:33.421Z,10.43
2023-04-18T19:39:02.305Z,10.44
2023-04-18T19:41:34.177Z,10.41
2023-04-18T19:44:02.655Z,10.34
2023-04-18T19:46:31.731Z,10.29
2023-04-18T19:49:03.607Z,10.24
2023-04-18T19:51:31.780Z,10.17
2023-04-18T19:54:00.260Z,10.10
2023-04-18T19:56:30.688Z,10.07
2023-04-18T19:58:59.203Z,10.11
2023-04-18T20:01:27.586Z,10.15
2023-04-18T20:03:58.896Z,10.18
2023-04-18T20:06:27.843Z,10.18
2023-04-18T20:08:56.167Z,10.13
2023-04-18T20:11:24.650Z,10.09
2023-04-18T20:13:55.590Z,10.05
2023-04-18T20:16:25.150Z,10.01
2023-04-18T20:18:55.014Z,9.98
2023-04-18T20:21:24.824Z,9.97
2023-04-18T20:23:56.581Z,10.00
2023-04-18T20:26:29.061Z,10.03
2023-04-18T20:28:57.542Z,10.05
2023-04-18T20:31:26.017Z,10.05
2023-04-18T20:33:54.334Z,10.02
2023-04-18T20:36:23.911Z,10.01
2023-04-18T20:38:52.597Z,9.98
2023-04-18T20:41:24.277Z,9.96
2023-04-18T20:43:54.067Z,9.92
2023-04-18T20:46:22.358Z,9.88
2023-04-18T20:48:51.842Z,9.89
2023-04-18T20:51:20.019Z,9.92
2023-04-18T20:53:48.407Z,9.97
2023-04-18T20:56:16.676Z,10.00
2023-04-18T20:58:45.976Z,10.01
2023-04-18T21:01:14.363Z,9.99
2023-04-18T21:03:44.335Z,9.98
2023-04-18T21:06:14.435Z,9.97
2023-04-18T21:08:44.148Z,9.93
2023-04-18T21:11:12.547Z,9.89
2023-04-18T21:13:41.218Z,9.85
2023-04-18T21:16:10.509Z,9.83
2023-04-18T21:18:40.324Z,9.86
2023-04-18T21:21:09.935Z,9.91
2023-04-18T21:25:32.104Z,9.93
2023-04-18T21:28:00.519Z,9.88
2023-04-18T21:30:29.180Z,9.83
2023-04-18T21:32:57.707Z,9.77
2023-04-18T21:35:30.057Z,9.73
2023-04-18T21:37:58.733Z,9.70
2023-04-18T21:40:31.383Z,9.64
2023-04-18T21:43:01.753Z,9.60
2023-04-18T21:45:33.953Z,9.58
2023-04-18T21:48:02.904Z,9.61
2023-04-18T21:50:31.417Z,9.64
2023-04-18T21:52:59.695Z,9.66
2023-04-18T21:55:28.261Z,9.66
2023-04-18T21:57:56.644Z,9.63
2023-04-18T22:00:25.847Z,9.63
2023-04-18T22:02:54.343Z,9.60
2023-04-18T22:05:22.852Z,9.56
2023-04-18T22:07:58.143Z,9.51
2023-04-18T22:10:27.217Z,9.43
2023-04-18T22:13:00.383Z,9.36
2023-04-18T22:15:30.745Z,9.33
2023-04-18T22:17:59.499Z,9.29
2023-04-18T22:20:29.704Z,9.24
2023-04-18T22:22:59.155Z,9.15
2023-04-18T22:25:27.341Z,9.04
2023-04-18T22:27:57.301Z,8.94
2023-04-18T22:30:27.011Z,8.84
2023-04-18T22:32:56.201Z,8.72
2023-04-18T22:35:25.078Z,8.60
2023-04-18T22:37:53.387Z,8.54
2023-04-18T22:40:22.040Z,8.51
2023-04-18T22:42:52.199Z,8.48
2023-04-18T22:45:21.300Z,8.46
2023-04-18T22:47:51.588Z,8.47
2023-04-18T22:50:21.217Z,8.45
2023-04-18T22:52:50.830Z,8.41
2023-04-18T22:55:20.228Z,8.39
2023-04-18T22:57:49.604Z,8.36
2023-04-18T23:00:18.203Z,8.33
2023-04-18T23:02:48.064Z,8.29
2023-04-18T23:05:16.576Z,8.27
2023-04-18T23:07:45.868Z,8.31
2023-04-18T23:10:15.068Z,8.41
2023-04-18T23:12:44.063Z,8.45
2023-04-18T23:15:12.901Z,8.47
2023-04-18T23:17:42.673Z,8.50
2023-04-18T23:20:12.630Z,8.52
2023-04-18T23:22:41.152Z,8.53
2023-04-18T23:25:10.560Z,8.55
2023-04-18T23:27:40.382Z,8.56
2023-04-18T23:30:09.461Z,8.57
2023-04-18T23:32:39.285Z,8.52
2023-04-18T23:35:10.670Z,8.46
2023-04-18T23:37:38.990Z,8.39
2023-04-18T23:40:09.932Z,8.36
2023-04-18T23:42:39.462Z,8.34
2023-04-18T23:45:08.356Z,8.33
2023-04-18T23:47:38.238Z,8.31
2023-04-18T23:50:09.652Z,8.29
2023-04-18T23:52:39.691Z,8.27
2023-04-18T23:55:08.694Z,8.28
2023-04-18T23:57:37.984Z,8.31
